createdAt,value
2022-10-06T00:02:13.126Z,96157.80
2022-10-06T00:04:39.320Z,96157.20
2022-10-06T00:07:05.327Z,96160.20
2022-10-06T00:09:31.326Z,96158.80
2022-10-06T00:11:57.289Z,96160.60
2022-10-06T00:14:23.259Z,96161.60
2022-10-06T00:16:49.202Z,96159.60
2022-10-06T00:19:15.226Z,96160.40
2022-10-06T00:21:41.175Z,96161.60
2022-10-06T00:24:07.065Z,96163.20
2022-10-06T00:26:34.112Z,96165.20
2022-10-06T00:29:00.142Z,96168.40
2022-10-06T00:31:26.296Z,96166.60
2022-10-06T00:33:52.706Z,96170.20
2022-10-06T00:36:19.170Z,96170.60
2022-10-06T00:38:45.160Z,96174.00
2022-10-06T00:41:14.609Z,96168.80
2022-10-06T00:43:52.329Z,96172.40
2022-10-06T00:46:51.994Z,96173.60
2022-10-06T00:49:35.646Z,96171.20
2022-10-06T00:52:07.319Z,96171.40
2022-10-06T00:54:35.365Z,96174.00
2022-10-06T00:57:03.857Z,96176.60
2022-10-06T00:59:29.912Z,96175.20
2022-10-06T01:02:06.431Z,96174.00
2022-10-06T01:04:35.654Z,96176.00
2022-10-06T01:07:03.028Z,96177.20
2022-10-06T01:09:30.432Z,96177.80
2022-10-06T01:12:01.430Z,96181.00
2022-10-06T01:14:28.555Z,96181.80
2022-10-06T01:17:06.951Z,96177.40
2022-10-06T01:20:03.376Z,96180.60
2022-10-06T01:22:35.160Z,96178.60
2022-10-06T01:25:05.841Z,96182.40
2022-10-06T01:27:33.979Z,96179.80
2022-10-06T01:30:00.489Z,96180.20
2022-10-06T01:32:33.204Z,96181.40
2022-10-06T01:34:59.276Z,96186.00
2022-10-06T01:37:25.432Z,96181.20
2022-10-06T01:39:52.951Z,96184.80
2022-10-06T01:42:18.985Z,96185.40
2022-10-06T01:44:44.912Z,96190.80
2022-10-06T01:47:11.794Z,96188.60
2022-10-06T01:49:37.928Z,96192.40
2022-10-06T01:52:04.429Z,96197.00
2022-10-06T01:54:30.391Z,96197.80
2022-10-06T01:56:56.464Z,96198.00
2022-10-06T01:59:23.935Z,96195.40
2022-10-06T02:01:51.559Z,96191.00
2022-10-06T02:04:19.240Z,96199.20
2022-10-06T02:06:45.356Z,96197.60
2022-10-06T02:09:11.494Z,96202.20
2022-10-06T02:11:39.286Z,96208.80
2022-10-06T02:14:05.305Z,96212.80
2022-10-06T02:16:31.726Z,96212.20
2022-10-06T02:18:57.676Z,96211.00
2022-10-06T02:21:24.567Z,96219.40
2022-10-06T02:23:50.928Z,96222.40
2022-10-06T02:26:18.247Z,96221.80
2022-10-06T02:28:46.066Z,96215.40
2022-10-06T02:31:14.171Z,96215.60
2022-10-06T02:33:40.861Z,96217.80
2022-10-06T02:36:13.407Z,96221.20
2022-10-06T02:38:40.990Z,96225.20
2022-10-06T02:41:08.242Z,96228.20
2022-10-06T02:43:34.622Z,96229.20
2022-10-06T02:46:12.754Z,96237.40
2022-10-06T02:48:43.179Z,96236.20
2022-10-06T02:51:14.861Z,96238.80
2022-10-06T02:53:44.781Z,96241.00
2022-10-06T02:56:18.100Z,96244.80
2022-10-06T02:58:47.239Z,96246.80
2022-10-06T03:01:24.932Z,96247.60
2022-10-06T03:03:52.254Z,96248.40
2022-10-06T03:06:25.020Z,96246.00
2022-10-06T03:09:04.497Z,96248.80
2022-10-06T03:11:34.096Z,96249.80
2022-10-06T03:14:00.380Z,96254.60
2022-10-06T03:16:31.563Z,96255.60
2022-10-06T03:18:58.674Z,96261.20
2022-10-06T03:21:30.685Z,96263.80
2022-10-06T03:23:57.916Z,96264.60
2022-10-06T03:26:33.110Z,96265.80
2022-10-06T03:29:00.095Z,96266.60
2022-10-06T03:31:27.699Z,96271.60
2022-10-06T03:33:56.074Z,96273.20
2022-10-06T03:36:26.374Z,96273.20
2022-10-06T03:38:52.407Z,96277.60
2022-10-06T03:41:28.406Z,96281.40
2022-10-06T03:43:58.002Z,96281.40
2022-10-06T03:46:27.803Z,96282.60
2022-10-06T03:48:56.477Z,96289.60
2022-10-06T03:51:33.034Z,96286.40
2022-10-06T03:54:00.351Z,96284.00
2022-10-06T03:56:34.079Z,96284.40
2022-10-06T03:59:03.908Z,96289.40
2022-10-06T04:01:37.030Z,96296.00
2022-10-06T04:04:05.788Z,96293.40
2022-10-06T04:06:36.296Z,96295.20
2022-10-06T04:09:12.528Z,96300.60
2022-10-06T04:11:42.387Z,96297.20
2022-10-06T04:14:13.151Z,96302.00
2022-10-06T04:16:45.270Z,96300.00
2022-10-06T04:19:14.564Z,96305.40
2022-10-06T04:21:47.524Z,96306.60
2022-10-06T04:24:17.892Z,96308.40
2022-10-06T04:26:48.246Z,96309.20
2022-10-06T04:29:14.737Z,96310.00
2022-10-06T04:31:41.852Z,96310.40
2022-10-06T04:34:34.196Z,96310.40
2022-10-06T04:37:00.136Z,96316.00
2022-10-06T04:39:26.684Z,96317.00
2022-10-06T04:41:52.676Z,96319.20
2022-10-06T04:44:23.024Z,96322.00
2022-10-06T04:46:49.254Z,96325.20
2022-10-06T04:49:20.518Z,96330.80
2022-10-06T04:51:48.822Z,96327.80
2022-10-06T04:54:15.281Z,96329.40
2022-10-06T04:56:41.311Z,96328.60
2022-10-06T04:59:07.330Z,96327.20
2022-10-06T05:01:37.289Z,96331.80
2022-10-06T05:04:07.308Z,96333.60
2022-10-06T05:06:40.432Z,96338.40
2022-10-06T05:09:16.647Z,96338.80
2022-10-06T05:11:47.487Z,96342.80
2022-10-06T05:14:16.175Z,96346.40
2022-10-06T05:16:44.975Z,96345.60
2022-10-06T05:19:11.839Z,96347.00
2022-10-06T05:21:38.937Z,96344.60
2022-10-06T05:24:07.269Z,96343.80
2022-10-06T05:26:36.028Z,96344.60
2022-10-06T05:29:04.287Z,96347.00
2022-10-06T05:31:34.483Z,96351.60
2022-10-06T05:34:02.702Z,96356.00
2022-10-06T05:36:33.509Z,96363.20
2022-10-06T05:39:01.069Z,96361.80
2022-10-06T05:41:33.265Z,96370.00
2022-10-06T05:44:04.000Z,96376.00
2022-10-06T05:46:34.975Z,96371.20
2022-10-06T05:49:09.477Z,96379.40
2022-10-06T05:51:41.900Z,96376.80
2022-10-06T05:54:13.812Z,96382.60
2022-10-06T05:56:39.803Z,96385.60
2022-10-06T05:59:06.471Z,96388.80
2022-10-06T06:01:41.980Z,96388.60
2022-10-06T06:04:15.336Z,96391.00
2022-10-06T06:06:51.367Z,96399.60
2022-10-06T06:09:22.487Z,96410.20
2022-10-06T06:11:54.390Z,96407.20
2022-10-06T06:14:54.257Z,96410.80
2022-10-06T06:17:23.310Z,96411.80
2022-10-06T06:19:49.818Z,96412.60
2022-10-06T06:22:15.912Z,96418.00
2022-10-06T06:24:43.511Z,96422.20
2022-10-06T06:27:09.980Z,96425.00
2022-10-06T06:29:35.967Z,96428.20
2022-10-06T06:32:02.472Z,96433.00
2022-10-06T06:34:29.399Z,96446.40
2022-10-06T06:37:00.147Z,96444.40
2022-10-06T06:39:29.745Z,96444.60
2022-10-06T06:41:56.325Z,96447.20
2022-10-06T06:44:37.990Z,96452.60
2022-10-06T06:47:09.336Z,96454.00
2022-10-06T06:49:35.402Z,96459.00
2022-10-06T06:52:04.529Z,96461.20
2022-10-06T06:54:32.588Z,96467.00
2022-10-06T06:57:02.885Z,96467.80
2022-10-06T06:59:32.296Z,96473.80
2022-10-06T07:01:58.501Z,96474.80
2022-10-06T07:04:26.099Z,96476.00
2022-10-06T07:06:58.138Z,96473.80
2022-10-06T07:09:27.667Z,96478.40
2022-10-06T07:12:00.946Z,96476.80
2022-10-06T07:14:27.003Z,96485.80
2022-10-06T07:17:11.864Z,96491.80
2022-10-06T07:20:07.444Z,96495.80
2022-10-06T07:22:52.373Z,96498.80
2022-10-06T07:25:26.287Z,96500.00
2022-10-06T07:27:59.954Z,96499.40
2022-10-06T07:30:29.881Z,96507.80
2022-10-06T07:33:04.361Z,96511.80
2022-10-06T07:35:31.365Z,96507.80
2022-10-06T07:38:01.527Z,96510.40
2022-10-06T07:40:28.544Z,96508.80
2022-10-06T07:42:54.547Z,96512.00
2022-10-06T07:45:37.826Z,96508.60
2022-10-06T07:48:18.359Z,96510.40
2022-10-06T07:50:49.505Z,96510.60
2022-10-06T07:53:19.040Z,96509.80
2022-10-06T07:55:49.924Z,96517.40
2022-10-06T07:58:25.533Z,96519.00
2022-10-06T08:00:52.469Z,96522.80
2022-10-06T08:03:19.416Z,96520.20
2022-10-06T08:05:48.615Z,96523.80
2022-10-06T08:08:15.830Z,96527.00
2022-10-06T08:10:43.524Z,96530.20
2022-10-06T08:13:09.856Z,96537.80
2022-10-06T08:15:36.166Z,96535.60
2022-10-06T08:18:12.213Z,96542.00
2022-10-06T08:20:47.778Z,96537.00
2022-10-06T08:23:14.034Z,96538.20
2022-10-06T08:25:43.630Z,96535.00
2022-10-06T08:28:12.794Z,96541.40
2022-10-06T08:30:39.324Z,96544.80
2022-10-06T08:33:05.671Z,96546.40
2022-10-06T08:35:32.650Z,96540.60
2022-10-06T08:37:58.915Z,96537.00
2022-10-06T08:40:26.727Z,96537.60
2022-10-06T08:42:57.431Z,96542.40
2022-10-06T08:45:38.391Z,96539.40
2022-10-06T08:48:09.881Z,96539.60
2022-10-06T08:50:57.714Z,96537.20
2022-10-06T08:54:03.802Z,96537.40
2022-10-06T08:56:48.020Z,96538.00
2022-10-06T08:59:15.679Z,96541.20
2022-10-06T09:01:48.126Z,96537.20
2022-10-06T09:04:27.612Z,96539.20
2022-10-06T09:07:11.847Z,96542.00
2022-10-06T09:10:03.463Z,96539.40
2022-10-06T09:13:04.213Z,96549.60
2022-10-06T09:16:08.581Z,96544.20
2022-10-06T09:19:20.837Z,96540.40
2022-10-06T09:21:52.723Z,96540.80
2022-10-06T09:24:34.463Z,96544.60
2022-10-06T09:27:22.611Z,96542.00
2022-10-06T09:29:50.208Z,96548.20
2022-10-06T09:32:20.518Z,96548.20
2022-10-06T09:34:55.717Z,96546.60
2022-10-06T09:37:22.746Z,96552.80
2022-10-06T09:39:51.447Z,96555.00
2022-10-06T09:42:34.706Z,96555.00
2022-10-06T09:45:06.836Z,96557.40
2022-10-06T09:47:40.380Z,96556.60
2022-10-06T09:50:13.627Z,96555.80
2022-10-06T09:53:04.999Z,96559.40
2022-10-06T09:55:36.952Z,96556.40
2022-10-06T09:58:21.531Z,96559.60
2022-10-06T10:00:55.997Z,96558.00
2022-10-06T10:03:25.511Z,96554.20
2022-10-06T10:05:54.292Z,96554.80
2022-10-06T10:08:30.116Z,96560.80
2022-10-06T10:11:26.981Z,96560.60
2022-10-06T10:13:54.652Z,96559.60
2022-10-06T10:16:26.855Z,96558.40
2022-10-06T10:18:53.278Z,96556.40
2022-10-06T10:21:29.201Z,96554.00
2022-10-06T10:23:57.463Z,96559.20
2022-10-06T10:26:38.604Z,96557.00
2022-10-06T10:29:33.578Z,96562.00
2022-10-06T10:32:15.246Z,96567.40
2022-10-06T10:35:11.033Z,96572.60
2022-10-06T10:37:46.768Z,96567.20
2022-10-06T10:40:31.507Z,96566.80
2022-10-06T10:43:20.009Z,96571.00
2022-10-06T10:46:31.616Z,96567.40
2022-10-06T10:49:18.315Z,96569.20
2022-10-06T10:51:53.445Z,96568.20
2022-10-06T10:54:40.362Z,96565.80
2022-10-06T10:57:19.622Z,96565.40
2022-10-06T11:00:04.590Z,96572.60
2022-10-06T11:02:30.914Z,96577.00
2022-10-06T11:05:29.720Z,96570.80
2022-10-06T11:08:08.631Z,96572.80
2022-10-06T11:10:48.012Z,96570.20
2022-10-06T11:13:42.361Z,96571.60
2022-10-06T11:16:46.729Z,96570.20
2022-10-06T11:20:11.463Z,96575.20
2022-10-06T11:22:50.899Z,96569.20
2022-10-06T11:25:35.975Z,96569.80
2022-10-06T11:28:24.060Z,96572.20
2022-10-06T11:31:23.764Z,96570.40
2022-10-06T11:33:55.405Z,96564.00
2022-10-06T11:36:49.232Z,96562.60
2022-10-06T11:39:48.164Z,96557.40
2022-10-06T11:42:33.743Z,96558.80
2022-10-06T11:45:11.528Z,96561.40
2022-10-06T11:48:16.872Z,96559.80
2022-10-06T11:50:43.896Z,96554.20
2022-10-06T11:53:31.986Z,96553.60
2022-10-06T11:56:15.938Z,96549.60
2022-10-06T11:58:51.195Z,96546.20
2022-10-06T12:01:32.955Z,96544.20
2022-10-06T12:04:07.957Z,96538.00
2022-10-06T12:06:42.975Z,96537.60
2022-10-06T12:09:37.989Z,96541.20
2022-10-06T12:12:18.779Z,96539.40
2022-10-06T12:17:05.077Z,96538.20
2022-10-06T12:18:03.777Z,96540.60
2022-10-06T12:21:27.126Z,96540.00
2022-10-06T12:24:24.099Z,96533.20
2022-10-06T12:27:15.061Z,96530.20
2022-10-06T12:30:30.197Z,96527.20
2022-10-06T12:32:58.292Z,96516.20
2022-10-06T12:35:29.144Z,96521.40
2022-10-06T12:37:59.861Z,96523.40
2022-10-06T12:40:41.087Z,96519.40
2022-10-06T12:43:22.430Z,96523.40
2022-10-06T12:46:36.479Z,96520.40
2022-10-06T12:49:33.703Z,96525.00
2022-10-06T12:52:08.992Z,96524.00
2022-10-06T12:54:46.422Z,96516.00
2022-10-06T12:57:19.929Z,96513.40
2022-10-06T12:59:48.648Z,96513.40
2022-10-06T13:02:24.658Z,96512.20
2022-10-06T13:04:59.986Z,96509.60
2022-10-06T13:07:29.713Z,96509.00
2022-10-06T13:10:20.944Z,96508.00
2022-10-06T13:12:49.664Z,96506.60
2022-10-06T13:15:28.909Z,96503.60
2022-10-06T13:18:07.046Z,96499.40
2022-10-06T13:20:37.667Z,96493.20
2022-10-06T13:23:10.397Z,96494.20
2022-10-06T13:25:48.465Z,96500.00
2022-10-06T13:28:35.880Z,96501.00
2022-10-06T13:31:30.670Z,96491.60
2022-10-06T13:34:05.250Z,96493.40
2022-10-06T13:36:38.464Z,96490.00
2022-10-06T13:39:13.374Z,96485.60
2022-10-06T13:41:50.269Z,96493.60
2022-10-06T13:44:48.122Z,96492.00
2022-10-06T13:47:16.013Z,96498.40
2022-10-06T13:49:56.902Z,96495.20
2022-10-06T13:52:39.449Z,96494.00
2022-10-06T13:55:26.986Z,96497.40
2022-10-06T13:58:04.986Z,96496.40
2022-10-06T14:00:53.808Z,96495.20
2022-10-06T14:03:24.347Z,96492.00
2022-10-06T14:06:04.735Z,96492.20
2022-10-06T14:08:30.884Z,96487.60
2022-10-06T14:11:05.313Z,96487.40
2022-10-06T14:13:43.755Z,96483.40
2022-10-06T14:16:23.349Z,96486.80
2022-10-06T14:19:00.305Z,96485.20
2022-10-06T14:21:34.993Z,96482.80
2022-10-06T14:24:06.193Z,96485.60
2022-10-06T14:26:35.471Z,96483.40
2022-10-06T14:29:01.387Z,96475.40
2022-10-06T14:31:28.689Z,96478.40
2022-10-06T14:33:56.408Z,96480.80
2022-10-06T14:36:28.561Z,96479.80
2022-10-06T14:38:56.671Z,96481.60
2022-10-06T14:41:29.478Z,96481.80
2022-10-06T14:44:05.501Z,96476.60
2022-10-06T14:46:32.837Z,96474.60
2022-10-06T14:48:59.787Z,96475.40
2022-10-06T14:51:26.868Z,96477.20
2022-10-06T14:53:58.009Z,96475.60
2022-10-06T14:56:28.533Z,96473.00
2022-10-06T14:58:54.999Z,96476.00
2022-10-06T15:01:24.532Z,96477.00
2022-10-06T15:03:54.114Z,96474.40
2022-10-06T15:06:38.764Z,96468.80
2022-10-06T15:09:05.444Z,96473.80
2022-10-06T15:11:32.101Z,96471.00
2022-10-06T15:13:58.899Z,96469.80
2022-10-06T15:16:29.030Z,96468.00
2022-10-06T15:18:57.964Z,96469.60
2022-10-06T15:21:25.971Z,96468.80
2022-10-06T15:23:57.270Z,96464.60
2022-10-06T15:26:41.881Z,96466.00
2022-10-06T15:29:08.342Z,96468.00
2022-10-06T15:31:40.491Z,96471.60
2022-10-06T15:34:10.114Z,96467.80
2022-10-06T15:36:39.193Z,96467.60
2022-10-06T15:39:15.615Z,96463.80
2022-10-06T15:41:42.576Z,96461.40
2022-10-06T15:44:10.255Z,96461.80
2022-10-06T15:46:40.106Z,96458.00
2022-10-06T15:49:15.904Z,96454.20
2022-10-06T15:51:48.437Z,96462.20
2022-10-06T15:54:21.185Z,96463.40
2022-10-06T15:56:49.979Z,96457.20
2022-10-06T15:59:20.907Z,96462.80
2022-10-06T16:01:47.148Z,96466.60
2022-10-06T16:04:50.498Z,96465.60
2022-10-06T16:07:18.970Z,96463.00
2022-10-06T16:09:50.500Z,96464.00
2022-10-06T16:12:20.811Z,96462.40
2022-10-06T16:14:46.968Z,96457.60
2022-10-06T16:17:14.407Z,96462.00
2022-10-06T16:19:41.132Z,96462.80
2022-10-06T16:22:12.772Z,96469.80
2022-10-06T16:24:38.734Z,96468.80
2022-10-06T16:27:05.249Z,96469.80
2022-10-06T16:29:31.263Z,96476.40
2022-10-06T16:31:58.526Z,96470.80
2022-10-06T16:34:24.938Z,96474.00
2022-10-06T16:36:50.936Z,96481.40
2022-10-06T16:39:20.956Z,96476.40
2022-10-06T16:41:48.252Z,96476.60
2022-10-06T16:44:14.765Z,96476.20
2022-10-06T16:46:41.653Z,96473.40
2022-10-06T16:49:08.531Z,96474.60
2022-10-06T16:51:40.879Z,96478.00
2022-10-06T16:54:10.172Z,96481.40
2022-10-06T16:56:38.832Z,96485.80
2022-10-06T16:59:10.797Z,96488.60
2022-10-06T17:01:37.334Z,96487.60
2022-10-06T17:04:15.119Z,96484.00
2022-10-06T17:06:53.780Z,96486.80
2022-10-06T17:09:25.434Z,96493.60
2022-10-06T17:11:58.168Z,96490.40
2022-10-06T17:14:26.065Z,96489.80
2022-10-06T17:16:55.366Z,96492.20
2022-10-06T17:19:24.763Z,96497.80
2022-10-06T17:21:57.457Z,96501.80
2022-10-06T17:24:27.079Z,96506.60
2022-10-06T17:26:52.991Z,96510.20
2022-10-06T17:29:22.645Z,96507.80
2022-10-06T17:31:55.174Z,96511.00
2022-10-06T17:34:24.420Z,96505.80
2022-10-06T17:36:52.724Z,96511.00
2022-10-06T17:39:21.880Z,96506.20
2022-10-06T17:41:51.655Z,96509.80
2022-10-06T17:44:23.391Z,96509.00
2022-10-06T17:46:54.562Z,96506.40
2022-10-06T17:49:23.174Z,96504.20
2022-10-06T17:51:51.309Z,96506.60
2022-10-06T17:54:20.977Z,96512.40
2022-10-06T17:56:54.091Z,96514.60
2022-10-06T17:59:29.756Z,96511.40
2022-10-06T18:01:59.157Z,96510.40
2022-10-06T18:04:26.434Z,96509.00
2022-10-06T18:06:53.749Z,96512.40
2022-10-06T18:09:21.115Z,96512.80
2022-10-06T18:11:55.374Z,96511.40
2022-10-06T18:14:27.986Z,96507.00
2022-10-06T18:16:58.953Z,96506.80
2022-10-06T18:19:31.341Z,96510.00
2022-10-06T18:22:09.186Z,96509.60
2022-10-06T18:24:35.890Z,96514.00
2022-10-06T18:27:01.869Z,96515.00
2022-10-06T18:29:34.831Z,96514.60
2022-10-06T18:32:56.630Z,96517.80
2022-10-06T18:37:34.458Z,96508.40
2022-10-06T18:40:04.632Z,96511.80
2022-10-06T18:42:30.585Z,96511.60
2022-10-06T18:45:39.330Z,96510.60
2022-10-06T18:48:24.220Z,96506.80
2022-10-06T18:51:00.762Z,96512.80
2022-10-06T18:53:26.831Z,96510.80
2022-10-06T18:55:52.711Z,96510.20
2022-10-06T18:58:18.672Z,96511.60
2022-10-06T19:00:45.297Z,96514.00
2022-10-06T19:03:11.237Z,96519.40
2022-10-06T19:05:37.189Z,96519.40
2022-10-06T19:08:03.976Z,96514.80
2022-10-06T19:10:29.968Z,96518.60
2022-10-06T19:12:57.588Z,96514.00
2022-10-06T19:15:23.495Z,96517.60
2022-10-06T19:17:49.949Z,96521.60
2022-10-06T19:20:17.485Z,96523.00
2022-10-06T19:22:43.450Z,96521.20
2022-10-06T19:25:09.397Z,96523.40
2022-10-06T19:27:35.675Z,96519.80
2022-10-06T19:30:01.616Z,96515.20
2022-10-06T19:32:32.000Z,96510.40
2022-10-06T19:34:59.149Z,96512.00
2022-10-06T19:37:29.878Z,96512.80
2022-10-06T19:39:56.491Z,96508.60
2022-10-06T19:42:41.323Z,96508.60
2022-10-06T19:45:09.079Z,96509.00
2022-10-06T19:47:35.048Z,96510.60
2022-10-06T19:50:07.253Z,96512.80
2022-10-06T19:52:36.863Z,96517.00
2022-10-06T19:55:03.706Z,96514.60
2022-10-06T19:57:32.042Z,96514.20
2022-10-06T19:59:58.003Z,96514.00
2022-10-06T20:02:23.943Z,96514.80
2022-10-06T20:04:49.926Z,96512.60
2022-10-06T20:07:15.951Z,96513.80
2022-10-06T20:09:41.847Z,96516.00
2022-10-06T20:12:07.752Z,96514.40
2022-10-06T20:14:33.837Z,96515.40
2022-10-06T20:17:00.033Z,96513.80
2022-10-06T20:19:26.114Z,96516.40
2022-10-06T20:21:53.474Z,96514.60
2022-10-06T20:24:22.639Z,96513.00
2022-10-06T20:26:50.492Z,96512.00
2022-10-06T20:29:23.246Z,96513.60
2022-10-06T20:31:53.484Z,96515.60
2022-10-06T20:34:23.974Z,96514.80
2022-10-06T20:36:55.650Z,96509.60
2022-10-06T20:39:41.145Z,96515.00
2022-10-06T20:42:10.750Z,96512.80
2022-10-06T20:44:41.696Z,96515.00
2022-10-06T20:47:08.277Z,96510.00
2022-10-06T20:49:34.317Z,96509.40
2022-10-06T20:52:01.676Z,96509.80
2022-10-06T20:54:33.999Z,96507.80
2022-10-06T20:57:02.997Z,96508.20
2022-10-06T20:59:34.405Z,96508.60
2022-10-06T21:02:00.665Z,96503.80
2022-10-06T21:04:27.162Z,96500.20
2022-10-06T21:06:53.162Z,96501.20
2022-10-06T21:09:19.370Z,96497.80
2022-10-06T21:11:47.432Z,96492.60
2022-10-06T21:14:14.533Z,96488.00
2022-10-06T21:16:45.613Z,96486.80
2022-10-06T21:19:18.439Z,96488.60
2022-10-06T21:21:51.309Z,96486.00
2022-10-06T21:24:18.053Z,96482.40
2022-10-06T21:26:44.032Z,96477.00
2022-10-06T21:29:13.721Z,96476.20
2022-10-06T21:31:39.645Z,96474.00
2022-10-06T21:34:05.675Z,96470.00
2022-10-06T21:36:31.684Z,96468.20
2022-10-06T21:39:08.942Z,96468.40
2022-10-06T21:41:38.173Z,96469.40
2022-10-06T21:44:05.795Z,96464.40
2022-10-06T21:46:46.250Z,96460.40
2022-10-06T21:49:15.868Z,96459.00
2022-10-06T21:51:47.367Z,96455.20
2022-10-06T21:54:14.166Z,96461.80
2022-10-06T21:56:40.878Z,96457.40
2022-10-06T21:59:07.391Z,96458.80
2022-10-06T22:01:40.045Z,96458.20
2022-10-06T22:04:06.263Z,96451.20
2022-10-06T22:06:35.057Z,96452.80
2022-10-06T22:09:03.749Z,96446.80
2022-10-06T22:11:35.697Z,96442.60
2022-10-06T22:14:04.902Z,96438.80
2022-10-06T22:16:32.893Z,96442.40
2022-10-06T22:19:03.216Z,96437.80
2022-10-06T22:21:34.321Z,96438.20
2022-10-06T22:24:08.651Z,96431.40
2022-10-06T22:26:37.079Z,96427.40
2022-10-06T22:29:05.509Z,96426.80
2022-10-06T22:31:31.624Z,96427.00
2022-10-06T22:34:00.603Z,96427.80
2022-10-06T22:36:28.013Z,96424.80
2022-10-06T22:38:55.384Z,96426.60
2022-10-06T22:41:22.336Z,96421.40
2022-10-06T22:43:48.610Z,96419.20
2022-10-06T22:46:14.738Z,96417.00
2022-10-06T22:48:41.123Z,96413.80
2022-10-06T22:51:08.330Z,96411.60
2022-10-06T22:53:34.492Z,96410.60
2022-10-06T22:56:03.033Z,96405.80
2022-10-06T22:58:29.310Z,96404.00
2022-10-06T23:00:55.530Z,96397.20
2022-10-06T23:03:22.750Z,96402.20
2022-10-06T23:05:59.711Z,96398.40
2022-10-06T23:08:30.166Z,96392.00
2022-10-06T23:11:11.116Z,96386.00
2022-10-06T23:13:37.326Z,96385.80
2022-10-06T23:16:08.094Z,96382.00
2022-10-06T23:18:37.132Z,96384.40
2022-10-06T23:21:16.865Z,96380.20
2022-10-06T23:23:42.758Z,96373.20
2022-10-06T23:26:14.294Z,96367.60
2022-10-06T23:28:40.445Z,96371.20
2022-10-06T23:31:09.396Z,96373.60
2022-10-06T23:33:35.766Z,96369.80
2022-10-06T23:36:09.370Z,96366.80
2022-10-06T23:38:37.321Z,96364.40
2022-10-06T23:41:05.389Z,96366.60
2022-10-06T23:43:31.318Z,96372.20
2022-10-06T23:45:57.359Z,96370.20
2022-10-06T23:48:23.818Z,96369.80
2022-10-06T23:51:03.643Z,96363.00
2022-10-06T23:53:30.567Z,96362.20
2022-10-06T23:55:57.150Z,96360.40
2022-10-06T23:58:23.370Z,96355.00
